Terminal Aerodrome Forecast
Issued by NWS

Home | Current Version | Previous Version | Text Only | Print | Product List | Glossary On
Versions: 1 2 3 4 5 6 7 8 9 10 11 12 13 14
913
FTUS43 KPAH 031608 AAA
TAFCGI
TAF AMD
KCGI 031608Z 0316/0412 25015G21KT P6SM SKC
     FM031700 28011KT P6SM OVC025
     FM040000 31005KT P6SM BKN035=

USA.gov is the U.S. government's official web portal to all federal, state and local government web resources and services.